sensor_id;sensor_type;location;lat;lon;timestamp;pressure;altitude;pressure_sealevel;temperature;humidity
50852;BME280;43953;45.508;-122.806;2022-10-16T00:00:20;100197.13;;;28.20;23.24
50852;BME280;43953;45.508;-122.806;2022-10-16T00:00:52;100203.78;;;28.19;23.37
50852;BME280;43953;45.508;-122.806;2022-10-16T00:01:28;100207.38;;;28.19;23.02
50852;BME280;43953;45.508;-122.806;2022-10-16T00:02:00;100196.31;;;28.19;23.54
50852;BME280;43953;45.508;-122.806;2022-10-16T00:02:32;100193.88;;;28.18;23.16
50852;BME280;43953;45.508;-122.806;2022-10-16T00:03:04;100193.53;;;28.19;23.55
50852;BME280;43953;45.508;-122.806;2022-10-16T00:03:38;100203.78;;;28.19;23.28
50852;BME280;43953;45.508;-122.806;2022-10-16T00:04:09;100198.25;;;28.19;23.46
50852;BME280;43953;45.508;-122.806;2022-10-16T00:04:41;100200.69;;;28.20;23.35
50852;BME280;43953;45.508;-122.806;2022-10-16T00:05:13;100204.63;;;28.19;23.21
50852;BME280;43953;45.508;-122.806;2022-10-16T00:05:45;100198.25;;;28.19;23.42
50852;BME280;43953;45.508;-122.806;2022-10-16T00:06:18;100200.69;;;28.20;23.36
50852;BME280;43953;45.508;-122.806;2022-10-16T00:06:50;100196.31;;;28.19;23.30
50852;BME280;43953;45.508;-122.806;2022-10-16T00:07:21;100197.91;;;28.20;23.12
50852;BME280;43953;45.508;-122.806;2022-10-16T00:07:53;100205.41;;;28.20;22.99
50852;BME280;43953;45.508;-122.806;2022-10-16T00:08:25;100197.91;;;28.20;23.14
50852;BME280;43953;45.508;-122.806;2022-10-16T00:08:59;100197.91;;;28.20;23.16
50852;BME280;43953;45.508;-122.806;2022-10-16T00:09:31;100195.94;;;28.21;22.90
50852;BME280;43953;45.508;-122.806;2022-10-16T00:10:03;100194.78;;;28.22;22.91
50852;BME280;43953;45.508;-122.806;2022-10-16T00:10:35;100196.75;;;28.21;23.02
50852;BME280;43953;45.508;-122.806;2022-10-16T00:11:21;100190.41;;;28.21;23.15
50852;BME280;43953;45.508;-122.806;2022-10-16T00:11:54;100187.66;;;28.21;22.89
50852;BME280;43953;45.508;-122.806;2022-10-16T00:12:25;100197.91;;;28.20;23.02
50852;BME280;43953;45.508;-122.806;2022-10-16T00:12:57;100192.03;;;28.22;23.23
50852;BME280;43953;45.508;-122.806;2022-10-16T00:13:29;100194.00;;;28.21;23.06
50852;BME280;43953;45.508;-122.806;2022-10-16T00:14:03;100186.50;;;28.22;22.99
50852;BME280;43953;45.508;-122.806;2022-10-16T00:14:35;100195.94;;;28.21;23.25
50852;BME280;43953;45.508;-122.806;2022-10-16T00:15:07;100195.94;;;28.21;23.25
50852;BME280;43953;45.508;-122.806;2022-10-16T00:15:39;100191.22;;;28.21;23.07
50852;BME280;43953;45.508;-122.806;2022-10-16T00:16:12;100185.69;;;28.21;23.25
50852;BME280;43953;45.508;-122.806;2022-10-16T00:16:43;100184.06;;;28.20;23.02
50852;BME280;43953;45.508;-122.806;2022-10-16T00:17:15;100200.69;;;28.20;23.08
50852;BME280;43953;45.508;-122.806;2022-10-16T00:17:47;100199.88;;;28.20;23.19
50852;BME280;43953;45.508;-122.806;2022-10-16T00:18:19;100183.28;;;28.20;23.01
50852;BME280;43953;45.508;-122.806;2022-10-16T00:18:51;100190.78;;;28.19;23.21
50852;BME280;43953;45.508;-122.806;2022-10-16T00:19:22;100190.41;;;28.21;22.88
50852;BME280;43953;45.508;-122.806;2022-10-16T00:19:54;100182.47;;;28.19;22.97
50852;BME280;43953;45.508;-122.806;2022-10-16T00:20:26;100193.19;;;28.21;23.05
50852;BME280;43953;45.508;-122.806;2022-10-16T00:21:06;100187.16;;;28.19;22.76
50852;BME280;43953;45.508;-122.806;2022-10-16T00:21:38;100188.00;;;28.19;23.03
50852;BME280;43953;45.508;-122.806;2022-10-16T00:22:10;100183.59;;;28.18;23.15
50852;BME280;43953;45.508;-122.806;2022-10-16T00:22:41;100185.56;;;28.18;23.31
50852;BME280;43953;45.508;-122.806;2022-10-16T00:23:13;100189.94;;;28.19;23.21
50852;BME280;43953;45.508;-122.806;2022-10-16T00:23:45;100178.06;;;28.18;23.00
50852;BME280;43953;45.508;-122.806;2022-10-16T00:24:17;100188.31;;;28.18;23.07
50852;BME280;43953;45.508;-122.806;2022-10-16T00:24:49;100191.09;;;28.18;22.99
50852;BME280;43953;45.508;-122.806;2022-10-16T00:25:20;100195.03;;;28.17;23.30
50852;BME280;43953;45.508;-122.806;2022-10-16T00:26:01;100185.09;;;28.16;23.29
50852;BME280;43953;45.508;-122.806;2022-10-16T00:26:34;100182.31;;;28.16;23.23
50852;BME280;43953;45.508;-122.806;2022-10-16T00:27:06;100186.25;;;28.15;23.31
50852;BME280;43953;45.508;-122.806;2022-10-16T00:27:38;100189.00;;;28.15;23.21
50852;BME280;43953;45.508;-122.806;2022-10-16T00:28:09;100182.66;;;28.14;23.18
50852;BME280;43953;45.508;-122.806;2022-10-16T00:28:41;100192.94;;;28.13;23.22
50852;BME280;43953;45.508;-122.806;2022-10-16T00:29:13;100184.63;;;28.13;22.80
50852;BME280;43953;45.508;-122.806;2022-10-16T00:29:49;100184.16;;;28.11;23.29
50852;BME280;43953;45.508;-122.806;2022-10-16T00:30:20;100192.13;;;28.13;22.97
50852;BME280;43953;45.508;-122.806;2022-10-16T00:30:52;100183.00;;;28.12;23.21
50852;BME280;43953;45.508;-122.806;2022-10-16T00:31:25;100186.13;;;28.11;23.29
50852;BME280;43953;45.508;-122.806;2022-10-16T00:31:56;100186.13;;;28.11;22.90
50852;BME280;43953;45.508;-122.806;2022-10-16T00:32:28;100190.03;;;28.10;23.25
50852;BME280;43953;45.508;-122.806;2022-10-16T00:33:00;100211.34;;;28.09;22.86
50852;BME280;43953;45.508;-122.806;2022-10-16T00:33:33;100181.25;;;28.08;23.14
50852;BME280;43953;45.508;-122.806;2022-10-16T00:34:04;100186.00;;;28.07;23.20
50852;BME280;43953;45.508;-122.806;2022-10-16T00:34:36;100194.31;;;28.07;22.99
50852;BME280;43953;45.508;-122.806;2022-10-16T00:35:08;100195.44;;;28.06;23.23
50852;BME280;43953;45.508;-122.806;2022-10-16T00:35:40;100187.13;;;28.06;22.82
50852;BME280;43953;45.508;-122.806;2022-10-16T00:36:13;100189.91;;;28.06;23.27
50852;BME280;43953;45.508;-122.806;2022-10-16T00:36:46;100191.06;;;28.05;22.99
50852;BME280;43953;45.508;-122.806;2022-10-16T00:37:18;100177.22;;;28.05;22.80
50852;BME280;43953;45.508;-122.806;2022-10-16T00:37:49;100197.75;;;28.04;22.99
50852;BME280;43953;45.508;-122.806;2022-10-16T00:38:21;100194.97;;;28.04;22.81
50852;BME280;43953;45.508;-122.806;2022-10-16T00:38:55;100196.59;;;28.05;22.67
50852;BME280;43953;45.508;-122.806;2022-10-16T00:39:27;100190.56;;;28.03;22.87
50852;BME280;43953;45.508;-122.806;2022-10-16T00:39:58;100194.50;;;28.02;22.94
50852;BME280;43953;45.508;-122.806;2022-10-16T00:40:30;100190.13;;;28.01;23.17
50852;BME280;43953;45.508;-122.806;2022-10-16T00:41:03;100191.25;;;28.00;23.01
50852;BME280;43953;45.508;-122.806;2022-10-16T00:41:34;100188.84;;;27.99;22.78
50852;BME280;43953;45.508;-122.806;2022-10-16T00:42:06;100186.88;;;27.99;23.00
50852;BME280;43953;45.508;-122.806;2022-10-16T00:42:38;100197.47;;;27.97;22.86
50852;BME280;43953;45.508;-122.806;2022-10-16T00:43:34;100185.47;;;27.93;23.13
50852;BME280;43953;45.508;-122.806;2022-10-16T00:45:15;100185.00;;;27.91;23.37
50852;BME280;43953;45.508;-122.806;2022-10-16T00:45:47;100194.44;;;27.90;22.88
50852;BME280;43953;45.508;-122.806;2022-10-16T00:46:22;100188.91;;;27.90;22.82
50852;BME280;43953;45.508;-122.806;2022-10-16T00:46:55;100173.44;;;27.89;22.89
50852;BME280;43953;45.508;-122.806;2022-10-16T00:47:43;100186.81;;;27.87;22.68
50852;BME280;43953;45.508;-122.806;2022-10-16T00:48:20;100186.03;;;27.86;23.12
50852;BME280;43953;45.508;-122.806;2022-10-16T00:49:04;100186.34;;;27.85;22.84
50852;BME280;43953;45.508;-122.806;2022-10-16T00:49:36;100183.56;;;27.85;23.10
50852;BME280;43953;45.508;-122.806;2022-10-16T00:50:48;100180.81;;;27.85;23.09
50852;BME280;43953;45.508;-122.806;2022-10-16T00:51:23;100177.56;;;27.83;23.23
50852;BME280;43953;45.508;-122.806;2022-10-16T00:51:56;100185.88;;;27.83;23.11
50852;BME280;43953;45.508;-122.806;2022-10-16T00:52:28;100184.56;;;27.80;23.33
50852;BME280;43953;45.508;-122.806;2022-10-16T00:53:01;100173.06;;;27.78;23.04
50852;BME280;43953;45.508;-122.806;2022-10-16T00:53:35;100176.13;;;27.77;23.21
50852;BME280;43953;45.508;-122.806;2022-10-16T00:54:13;100184.78;;;27.75;23.44
50852;BME280;43953;45.508;-122.806;2022-10-16T00:54:46;100170.47;;;27.73;22.95
50852;BME280;43953;45.508;-122.806;2022-10-16T00:55:19;100175.19;;;27.73;23.14
50852;BME280;43953;45.508;-122.806;2022-10-16T00:55:52;100175.50;;;27.71;22.87
50852;BME280;43953;45.508;-122.806;2022-10-16T00:56:23;100180.25;;;27.71;22.86
50852;BME280;43953;45.508;-122.806;2022-10-16T00:56:57;100177.47;;;27.71;22.93
50852;BME280;43953;45.508;-122.806;2022-10-16T00:57:30;100177.00;;;27.68;23.14
50852;BME280;43953;45.508;-122.806;2022-10-16T00:58:02;100181.72;;;27.68;23.05
50852;BME280;43953;45.508;-122.806;2022-10-16T00:58:33;100193.94;;;27.67;23.48
50852;BME280;43953;45.508;-122.806;2022-10-16T00:59:10;100178.50;;;27.66;23.18
50852;BME280;43953;45.508;-122.806;2022-10-16T00:59:45;100178.81;;;27.64;23.30
50852;BME280;43953;45.508;-122.806;2022-10-16T01:00:21;100177.22;;;27.63;23.39
50852;BME280;43953;45.508;-122.806;2022-10-16T01:00:53;100178.34;;;27.62;22.99
50852;BME280;43953;45.508;-122.806;2022-10-16T01:01:25;100186.63;;;27.62;23.40
50852;BME280;43953;45.508;-122.806;2022-10-16T01:01:57;100183.41;;;27.60;23.20
50852;BME280;43953;45.508;-122.806;2022-10-16T01:02:29;100189.75;;;27.61;23.34
50852;BME280;43953;45.508;-122.806;2022-10-16T01:03:02;100177.09;;;27.60;23.42
50852;BME280;43953;45.508;-122.806;2022-10-16T01:03:36;100178.22;;;27.59;23.37
50852;BME280;43953;45.508;-122.806;2022-10-16T01:04:07;100185.69;;;27.58;23.15
50852;BME280;43953;45.508;-122.806;2022-10-16T01:04:48;100186.38;;;27.55;23.24
50852;BME280;43953;45.508;-122.806;2022-10-16T01:05:23;100195.47;;;27.56;23.38
50852;BME280;43953;45.508;-122.806;2022-10-16T01:10:59;100169.72;;;27.43;23.29
50852;BME280;43953;45.508;-122.806;2022-10-16T01:12:23;100176.72;;;27.40;23.18
50852;BME280;43953;45.508;-122.806;2022-10-16T01:13:15;100182.25;;;27.40;23.54
50852;BME280;43953;45.508;-122.806;2022-10-16T01:13:54;100188.09;;;27.39;23.34
50852;BME280;43953;45.508;-122.806;2022-10-16T01:14:40;100177.38;;;27.37;23.14
50852;BME280;43953;45.508;-122.806;2022-10-16T01:15:18;100182.91;;;27.37;23.21
50852;BME280;43953;45.508;-122.806;2022-10-16T01:16:19;100187.50;;;27.33;23.32
50852;BME280;43953;45.508;-122.806;2022-10-16T01:17:06;100178.38;;;27.33;23.73
50852;BME280;43953;45.508;-122.806;2022-10-16T01:17:48;100169.28;;;27.32;23.69
50852;BME280;43953;45.508;-122.806;2022-10-16T01:18:52;100175.16;;;27.31;23.23
50852;BME280;43953;45.508;-122.806;2022-10-16T01:20:20;100178.59;;;27.28;23.69
50852;BME280;43953;45.508;-122.806;2022-10-16T01:21:47;100174.53;;;27.25;23.65
50852;BME280;43953;45.508;-122.806;2022-10-16T01:22:21;100169.34;;;27.23;23.45
50852;BME280;43953;45.508;-122.806;2022-10-16T01:24:48;100175.88;;;27.19;23.15
50852;BME280;43953;45.508;-122.806;2022-10-16T01:27:14;100179.59;;;27.14;23.32
50852;BME280;43953;45.508;-122.806;2022-10-16T01:27:49;100183.50;;;27.13;23.67
50852;BME280;43953;45.508;-122.806;2022-10-16T01:28:25;100178.00;;;27.13;23.52
50852;BME280;43953;45.508;-122.806;2022-10-16T01:29:23;100175.88;;;27.10;23.53
50852;BME280;43953;45.508;-122.806;2022-10-16T01:30:24;100175.75;;;27.07;23.32
50852;BME280;43953;45.508;-122.806;2022-10-16T01:30:59;100171.03;;;27.07;23.76
50852;BME280;43953;45.508;-122.806;2022-10-16T01:31:36;100177.69;;;27.06;23.63
50852;BME280;43953;45.508;-122.806;2022-10-16T01:32:45;100182.75;;;27.04;23.59
50852;BME280;43953;45.508;-122.806;2022-10-16T01:33:23;100192.16;;;27.03;23.51
50852;BME280;43953;45.508;-122.806;2022-10-16T01:34:38;100185.84;;;27.03;23.79
50852;BME280;43953;45.508;-122.806;2022-10-16T01:35:11;100186.50;;;26.99;23.78
50852;BME280;43953;45.508;-122.806;2022-10-16T01:35:52;100180.16;;;26.99;23.51
50852;BME280;43953;45.508;-122.806;2022-10-16T01:36:34;100182.44;;;26.97;23.47
50852;BME280;43953;45.508;-122.806;2022-10-16T01:37:16;100193.50;;;26.97;23.47
50852;BME280;43953;45.508;-122.806;2022-10-16T01:37:51;100187.97;;;26.97;23.75
50852;BME280;43953;45.508;-122.806;2022-10-16T01:38:35;100185.88;;;26.94;23.63
50852;BME280;43953;45.508;-122.806;2022-10-16T01:39:10;100188.97;;;26.92;23.74
50852;BME280;43953;45.508;-122.806;2022-10-16T01:39:45;100188.63;;;26.94;23.88
50852;BME280;43953;45.508;-122.806;2022-10-16T01:40:20;100194.81;;;26.91;23.88
50852;BME280;43953;45.508;-122.806;2022-10-16T01:41:02;100193.22;;;26.90;24.11
50852;BME280;43953;45.508;-122.806;2022-10-16T01:41:44;100198.75;;;26.90;24.02
50852;BME280;43953;45.508;-122.806;2022-10-16T01:42:29;100188.34;;;26.87;23.74
50852;BME280;43953;45.508;-122.806;2022-10-16T01:43:08;100196.94;;;26.85;24.10
50852;BME280;43953;45.508;-122.806;2022-10-16T01:44:03;100193.72;;;26.83;24.24
50852;BME280;43953;45.508;-122.806;2022-10-16T01:44:37;100199.25;;;26.83;23.84
50852;BME280;43953;45.508;-122.806;2022-10-16T01:45:13;100202.34;;;26.82;23.83
50852;BME280;43953;45.508;-122.806;2022-10-16T01:45:46;100199.56;;;26.82;23.98
50852;BME280;43953;45.508;-122.806;2022-10-16T01:46:20;100191.63;;;26.80;23.84
50852;BME280;43953;45.508;-122.806;2022-10-16T01:46:54;100206.25;;;26.81;23.91
50852;BME280;43953;45.508;-122.806;2022-10-16T01:47:27;100200.72;;;26.81;23.95
50852;BME280;43953;45.508;-122.806;2022-10-16T01:48:04;100207.38;;;26.80;23.90
50852;BME280;43953;45.508;-122.806;2022-10-16T01:48:39;100212.44;;;26.77;24.22
50852;BME280;43953;45.508;-122.806;2022-10-16T01:49:12;100206.91;;;26.77;23.96
50852;BME280;43953;45.508;-122.806;2022-10-16T01:49:45;100190.66;;;26.76;23.96
50852;BME280;43953;45.508;-122.806;2022-10-16T01:50:19;100209.19;;;26.75;24.05
50852;BME280;43953;45.508;-122.806;2022-10-16T01:51:01;100202.03;;;26.74;24.15
50852;BME280;43953;45.508;-122.806;2022-10-16T01:51:35;100205.13;;;26.73;24.38
50852;BME280;43953;45.508;-122.806;2022-10-16T01:52:13;100206.59;;;26.70;24.26
50852;BME280;43953;45.508;-122.806;2022-10-16T01:52:49;100204.97;;;26.69;24.44
50852;BME280;43953;45.508;-122.806;2022-10-16T01:53:23;100206.94;;;26.69;24.34
50852;BME280;43953;45.508;-122.806;2022-10-16T01:53:58;100191.50;;;26.68;24.45
50852;BME280;43953;45.508;-122.806;2022-10-16T01:54:34;100207.25;;;26.67;24.24
50852;BME280;43953;45.508;-122.806;2022-10-16T01:55:09;100208.06;;;26.68;24.00
50852;BME280;43953;45.508;-122.806;2022-10-16T01:55:44;100206.44;;;26.67;23.97
50852;BME280;43953;45.508;-122.806;2022-10-16T01:56:18;100209.22;;;26.67;24.41
50852;BME280;43953;45.508;-122.806;2022-10-16T01:56:54;100207.91;;;26.64;24.25
50852;BME280;43953;45.508;-122.806;2022-10-16T01:57:28;100205.97;;;26.65;24.03
50852;BME280;43953;45.508;-122.806;2022-10-16T01:58:02;100199.63;;;26.64;24.46
50852;BME280;43953;45.508;-122.806;2022-10-16T01:58:41;100198.00;;;26.63;24.10
50852;BME280;43953;45.508;-122.806;2022-10-16T01:59:16;100199.97;;;26.63;24.11
50852;BME280;43953;45.508;-122.806;2022-10-16T01:59:54;100215.72;;;26.62;24.29
50852;BME280;43953;45.508;-122.806;2022-10-16T02:00:27;100201.94;;;26.62;24.03
50852;BME280;43953;45.508;-122.806;2022-10-16T02:00:59;100201.94;;;26.62;24.22
50852;BME280;43953;45.508;-122.806;2022-10-16T02:01:32;100206.97;;;26.60;24.24
50852;BME280;43953;45.508;-122.806;2022-10-16T02:02:08;100196.72;;;26.61;24.25
50852;BME280;43953;45.508;-122.806;2022-10-16T02:02:45;100210.88;;;26.59;24.02
50852;BME280;43953;45.508;-122.806;2022-10-16T02:03:20;100204.50;;;26.59;24.10
50852;BME280;43953;45.508;-122.806;2022-10-16T02:03:54;100202.91;;;26.58;24.47
50852;BME280;43953;45.508;-122.806;2022-10-16T02:04:33;100196.56;;;26.57;24.44
50852;BME280;43953;45.508;-122.806;2022-10-16T02:05:51;100212.34;;;26.57;24.20
50852;BME280;43953;45.508;-122.806;2022-10-16T02:06:24;100209.88;;;26.55;24.37
50852;BME280;43953;45.508;-122.806;2022-10-16T02:06:57;100198.34;;;26.53;24.13
50852;BME280;43953;45.508;-122.806;2022-10-16T02:07:29;100212.16;;;26.53;24.36
50852;BME280;43953;45.508;-122.806;2022-10-16T02:08:00;100206.63;;;26.53;24.62
50852;BME280;43953;45.508;-122.806;2022-10-16T02:08:33;100206.63;;;26.53;24.14
50852;BME280;43953;45.508;-122.806;2022-10-16T02:09:06;100206.63;;;26.53;24.69
50852;BME280;43953;45.508;-122.806;2022-10-16T02:09:38;100196.75;;;26.52;24.71
50852;BME280;43953;45.508;-122.806;2022-10-16T02:10:10;100205.03;;;26.52;24.11
50852;BME280;43953;45.508;-122.806;2022-10-16T02:10:42;100203.41;;;26.51;24.62
50852;BME280;43953;45.508;-122.806;2022-10-16T02:11:14;100210.06;;;26.50;24.49
50852;BME280;43953;45.508;-122.806;2022-10-16T02:11:46;100203.72;;;26.49;24.22
50852;BME280;43953;45.508;-122.806;2022-10-16T02:12:28;100207.91;;;26.47;24.78
50852;BME280;43953;45.508;-122.806;2022-10-16T02:13:23;100207.47;;;26.45;24.63
50852;BME280;43953;45.508;-122.806;2022-10-16T02:14:07;100209.72;;;26.43;24.38
50852;BME280;43953;45.508;-122.806;2022-10-16T02:14:39;100214.44;;;26.42;24.45
50852;BME280;43953;45.508;-122.806;2022-10-16T02:15:11;100214.44;;;26.42;24.62
50852;BME280;43953;45.508;-122.806;2022-10-16T02:15:43;100206.16;;;26.42;24.39
50852;BME280;43953;45.508;-122.806;2022-10-16T02:16:15;100205.34;;;26.42;24.45
50852;BME280;43953;45.508;-122.806;2022-10-16T02:16:47;100214.44;;;26.42;24.23
50852;BME280;43953;45.508;-122.806;2022-10-16T02:17:19;100210.03;;;26.41;24.35
50852;BME280;43953;45.508;-122.806;2022-10-16T02:17:50;100207.63;;;26.40;24.51
50852;BME280;43953;45.508;-122.806;2022-10-16T02:18:22;100217.84;;;26.39;24.82
50852;BME280;43953;45.508;-122.806;2022-10-16T02:18:54;100212.66;;;26.38;24.76
50852;BME280;43953;45.508;-122.806;2022-10-16T02:19:25;100208.28;;;26.37;24.75
50852;BME280;43953;45.508;-122.806;2022-10-16T02:19:58;100209.44;;;26.36;24.63
50852;BME280;43953;45.508;-122.806;2022-10-16T02:20:38;100214.09;;;26.35;24.82
50852;BME280;43953;45.508;-122.806;2022-10-16T02:21:25;100212.00;;;26.32;24.60
50852;BME280;43953;45.508;-122.806;2022-10-16T02:22:01;100213.97;;;26.31;24.63
50852;BME280;43953;45.508;-122.806;2022-10-16T02:22:45;100208.78;;;26.30;24.66
50852;BME280;43953;45.508;-122.806;2022-10-16T02:23:45;100223.69;;;26.29;24.96
50852;BME280;43953;45.508;-122.806;2022-10-16T02:25:40;100219.63;;;26.26;24.82
50852;BME280;43953;45.508;-122.806;2022-10-16T02:25:47;100227.13;;;26.26;24.73
50852;BME280;43953;45.508;-122.806;2022-10-16T02:26:35;100221.94;;;26.24;25.26
50852;BME280;43953;45.508;-122.806;2022-10-16T02:27:26;100229.41;;;26.24;24.82
50852;BME280;43953;45.508;-122.806;2022-10-16T02:28:08;100227.75;;;26.23;25.13
50852;BME280;43953;45.508;-122.806;2022-10-16T02:28:53;100224.19;;;26.22;24.86
50852;BME280;43953;45.508;-122.806;2022-10-16T02:29:26;100221.13;;;26.24;24.80
50852;BME280;43953;45.508;-122.806;2022-10-16T02:30:24;100230.53;;;26.23;24.83
50852;BME280;43953;45.508;-122.806;2022-10-16T02:30:59;100228.91;;;26.22;25.00
50852;BME280;43953;45.508;-122.806;2022-10-16T02:31:35;100230.06;;;26.21;24.95
50852;BME280;43953;45.508;-122.806;2022-10-16T02:32:10;100228.09;;;26.21;25.05
50852;BME280;43953;45.508;-122.806;2022-10-16T02:32:47;100232.81;;;26.21;24.77
50852;BME280;43953;45.508;-122.806;2022-10-16T02:33:21;100232.81;;;26.21;25.02
50852;BME280;43953;45.508;-122.806;2022-10-16T02:33:58;100232.31;;;26.19;25.20
50852;BME280;43953;45.508;-122.806;2022-10-16T02:34:32;100225.19;;;26.18;25.03
50852;BME280;43953;45.508;-122.806;2022-10-16T02:35:04;100231.53;;;26.18;24.81
50852;BME280;43953;45.508;-122.806;2022-10-16T02:35:38;100242.06;;;26.16;25.01
50852;BME280;43953;45.508;-122.806;2022-10-16T02:36:10;100217.22;;;26.16;25.07
50852;BME280;43953;45.508;-122.806;2022-10-16T02:36:43;100232.16;;;26.15;24.94
50852;BME280;43953;45.508;-122.806;2022-10-16T02:37:16;100228.56;;;26.15;25.04
50852;BME280;43953;45.508;-122.806;2022-10-16T02:37:50;100233.28;;;26.14;24.78
50852;BME280;43953;45.508;-122.806;2022-10-16T02:38:23;100227.31;;;26.12;25.22
50852;BME280;43953;45.508;-122.806;2022-10-16T02:38:55;100243.03;;;26.12;25.11
50852;BME280;43953;45.508;-122.806;2022-10-16T02:39:28;100235.88;;;26.10;25.02
50852;BME280;43953;45.508;-122.806;2022-10-16T02:40:01;100232.31;;;26.10;24.96
50852;BME280;43953;45.508;-122.806;2022-10-16T02:40:34;100232.31;;;26.10;25.04
50852;BME280;43953;45.508;-122.806;2022-10-16T02:41:06;100230.72;;;26.09;25.25
50852;BME280;43953;45.508;-122.806;2022-10-16T02:41:38;100232.97;;;26.07;25.29
50852;BME280;43953;45.508;-122.806;2022-10-16T02:42:14;100233.78;;;26.07;25.13
50852;BME280;43953;45.508;-122.806;2022-10-16T02:42:50;100232.97;;;26.07;25.48
50852;BME280;43953;45.508;-122.806;2022-10-16T02:43:22;100238.50;;;26.07;25.30
50852;BME280;43953;45.508;-122.806;2022-10-16T02:43:56;100232.16;;;26.06;25.11
50852;BME280;43953;45.508;-122.806;2022-10-16T02:44:27;100234.13;;;26.06;25.31
50852;BME280;43953;45.508;-122.806;2022-10-16T02:44:59;100234.94;;;26.06;25.39
50852;BME280;43953;45.508;-122.806;2022-10-16T02:45:31;100232.81;;;26.03;24.99
50852;BME280;43953;45.508;-122.806;2022-10-16T02:46:03;100236.03;;;26.05;25.41
50852;BME280;43953;45.508;-122.806;2022-10-16T02:46:35;100228.09;;;26.04;24.83
50852;BME280;43953;45.508;-122.806;2022-10-16T02:47:06;100239.16;;;26.04;25.18
50852;BME280;43953;45.508;-122.806;2022-10-16T02:47:38;100233.63;;;26.04;24.97
50852;BME280;43953;45.508;-122.806;2022-10-16T02:48:10;100247.41;;;26.04;25.22
50852;BME280;43953;45.508;-122.806;2022-10-16T02:48:41;100225.34;;;26.04;25.13
50852;BME280;43953;45.508;-122.806;2022-10-16T02:49:13;100232.81;;;26.03;25.13
50852;BME280;43953;45.508;-122.806;2022-10-16T02:49:45;100230.38;;;26.02;25.41
50852;BME280;43953;45.508;-122.806;2022-10-16T02:50:16;100244.97;;;26.02;25.15
50852;BME280;43953;45.508;-122.806;2022-10-16T02:50:48;100231.53;;;26.01;25.36
50852;BME280;43953;45.508;-122.806;2022-10-16T02:51:20;100239.00;;;26.00;25.41
50852;BME280;43953;45.508;-122.806;2022-10-16T02:51:52;100236.22;;;26.00;25.40
50852;BME280;43953;45.508;-122.806;2022-10-16T02:52:23;100232.63;;;26.00;24.88
50852;BME280;43953;45.508;-122.806;2022-10-16T02:52:55;100236.53;;;25.99;25.34
50852;BME280;43953;45.508;-122.806;2022-10-16T02:53:27;100240.44;;;25.98;24.94
50852;BME280;43953;45.508;-122.806;2022-10-16T02:53:58;100226.97;;;25.96;25.14
50852;BME280;43953;45.508;-122.806;2022-10-16T02:54:30;100236.03;;;25.97;25.33
50852;BME280;43953;45.508;-122.806;2022-10-16T02:55:02;100233.28;;;25.97;25.05
50852;BME280;43953;45.508;-122.806;2022-10-16T02:55:34;100234.44;;;25.96;25.28
50852;BME280;43953;45.508;-122.806;2022-10-16T02:56:06;100236.03;;;25.97;25.21
50852;BME280;43953;45.508;-122.806;2022-10-16T02:56:37;100237.19;;;25.96;25.26
50852;BME280;43953;45.508;-122.806;2022-10-16T02:57:09;100244.97;;;25.94;25.32
50852;BME280;43953;45.508;-122.806;2022-10-16T02:57:41;100239.44;;;25.94;25.07
50852;BME280;43953;45.508;-122.806;2022-10-16T02:58:13;100237.84;;;25.93;25.09
50852;BME280;43953;45.508;-122.806;2022-10-16T02:58:45;100232.31;;;25.93;25.10
50852;BME280;43953;45.508;-122.806;2022-10-16T02:59:17;100229.56;;;25.93;25.38
50852;BME280;43953;45.508;-122.806;2022-10-16T02:59:48;100247.25;;;25.92;25.18
50852;BME280;43953;45.508;-122.806;2022-10-16T03:00:20;100235.41;;;25.91;25.14
50852;BME280;43953;45.508;-122.806;2022-10-16T03:00:52;100241.75;;;25.92;25.18
50852;BME280;43953;45.508;-122.806;2022-10-16T03:01:24;100248.38;;;25.91;25.12
50852;BME280;43953;45.508;-122.806;2022-10-16T03:01:56;100231.34;;;25.89;25.47
50852;BME280;43953;45.508;-122.806;2022-10-16T03:02:27;100236.53;;;25.90;25.32
50852;BME280;43953;45.508;-122.806;2022-10-16T03:02:59;100232.97;;;25.90;25.53
50852;BME280;43953;45.508;-122.806;2022-10-16T03:03:31;100245.16;;;25.89;25.47
50852;BME280;43953;45.508;-122.806;2022-10-16T03:04:02;100239.63;;;25.89;25.53
50852;BME280;43953;45.508;-122.806;2022-10-16T03:04:34;100239.94;;;25.87;25.75
50852;BME280;43953;45.508;-122.806;2022-10-16T03:05:06;100241.38;;;25.84;25.62
50852;BME280;43953;45.508;-122.806;2022-10-16T03:05:38;100245.78;;;25.85;25.47
50852;BME280;43953;45.508;-122.806;2022-10-16T03:06:10;100246.09;;;25.84;25.63
50852;BME280;43953;45.508;-122.806;2022-10-16T03:06:42;100240.59;;;25.84;25.47
50852;BME280;43953;45.508;-122.806;2022-10-16T03:07:13;100232.66;;;25.82;25.38
50852;BME280;43953;45.508;-122.806;2022-10-16T03:07:45;100246.09;;;25.84;25.60
50852;BME280;43953;45.508;-122.806;2022-10-16T03:08:17;100240.94;;;25.82;25.61
50852;BME280;43953;45.508;-122.806;2022-10-16T03:08:54;100242.84;;;25.82;25.54
50852;BME280;43953;45.508;-122.806;2022-10-16T03:09:26;100240.94;;;25.82;25.52
50852;BME280;43953;45.508;-122.806;2022-10-16T03:09:57;100244.75;;;25.81;25.75
50852;BME280;43953;45.508;-122.806;2022-10-16T03:10:31;100247.84;;;25.80;25.89
50852;BME280;43953;45.508;-122.806;2022-10-16T03:11:03;100238.78;;;25.79;25.72